sensor_id;sensor_type;location;lat;lon;timestamp;pressure;altitude;pressure_sealevel;temperature;humidity
13486;BME280;6815;59.336;17.998;2023-04-19T00:00:41;52083.16;;;-145.37;57.60
13486;BME280;6815;59.336;17.998;2023-04-19T00:03:08;52059.22;;;-145.37;58.02
13486;BME280;6815;59.336;17.998;2023-04-19T00:05:34;52055.22;;;-145.37;57.51
13486;BME280;6815;59.336;17.998;2023-04-19T00:08:03;52067.19;;;-145.37;57.58
13486;BME280;6815;59.336;17.998;2023-04-19T00:10:30;52019.28;;;-145.37;57.38
13486;BME280;6815;59.336;17.998;2023-04-19T00:12:55;52061.22;;;-145.37;58.06
13486;BME280;6815;59.336;17.998;2023-04-19T00:15:21;52077.19;;;-145.37;58.13
13486;BME280;6815;59.336;17.998;2023-04-19T00:17:46;52051.22;;;-145.37;58.75
13486;BME280;6815;59.336;17.998;2023-04-19T00:20:12;52063.22;;;-145.37;59.18
13486;BME280;6815;59.336;17.998;2023-04-19T00:22:38;52053.22;;;-145.37;59.10
13486;BME280;6815;59.336;17.998;2023-04-19T00:25:04;52057.22;;;-145.37;59.99
13486;BME280;6815;59.336;17.998;2023-04-19T00:27:30;52025.28;;;-145.37;59.91
13486;BME280;6815;59.336;17.998;2023-04-19T00:29:56;52039.25;;;-145.37;60.08
13486;BME280;6815;59.336;17.998;2023-04-19T00:32:23;52069.19;;;-145.37;60.31
13486;BME280;6815;59.336;17.998;2023-04-19T00:34:49;52089.16;;;-145.37;59.75
13486;BME280;6815;59.336;17.998;2023-04-19T00:37:15;52033.25;;;-145.37;60.87
13486;BME280;6815;59.336;17.998;2023-04-19T00:39:41;52053.22;;;-145.37;60.69
13486;BME280;6815;59.336;17.998;2023-04-19T00:42:07;52071.19;;;-145.37;60.16
13486;BME280;6815;59.336;17.998;2023-04-19T00:44:32;52019.28;;;-145.37;60.50
13486;BME280;6815;59.336;17.998;2023-04-19T00:46:58;52079.19;;;-145.37;61.04
13486;BME280;6815;59.336;17.998;2023-04-19T00:49:24;52075.19;;;-145.37;62.08
13486;BME280;6815;59.336;17.998;2023-04-19T00:51:50;52073.19;;;-145.37;62.40
13486;BME280;6815;59.336;17.998;2023-04-19T00:54:18;52099.13;;;-145.37;62.60
13486;BME280;6815;59.336;17.998;2023-04-19T00:56:44;52051.22;;;-145.37;62.89
13486;BME280;6815;59.336;17.998;2023-04-19T00:59:10;52061.22;;;-145.37;62.61
13486;BME280;6815;59.336;17.998;2023-04-19T01:01:37;52051.22;;;-145.37;62.32
13486;BME280;6815;59.336;17.998;2023-04-19T01:04:04;52051.22;;;-145.37;63.18
13486;BME280;6815;59.336;17.998;2023-04-19T01:06:30;52023.28;;;-145.37;63.37
13486;BME280;6815;59.336;17.998;2023-04-19T01:08:57;52051.22;;;-145.37;62.81
13486;BME280;6815;59.336;17.998;2023-04-19T01:11:23;52013.31;;;-145.37;62.41
13486;BME280;6815;59.336;17.998;2023-04-19T01:13:49;52029.28;;;-145.37;62.93
13486;BME280;6815;59.336;17.998;2023-04-19T01:16:15;52039.25;;;-145.37;63.78
13486;BME280;6815;59.336;17.998;2023-04-19T01:18:41;52069.19;;;-145.37;63.73
13486;BME280;6815;59.336;17.998;2023-04-19T01:21:07;52041.25;;;-145.37;64.22
13486;BME280;6815;59.336;17.998;2023-04-19T01:23:33;52029.28;;;-145.37;64.71
13486;BME280;6815;59.336;17.998;2023-04-19T01:26:01;52067.19;;;-145.37;64.61
13486;BME280;6815;59.336;17.998;2023-04-19T01:28:27;52057.22;;;-145.37;64.59
13486;BME280;6815;59.336;17.998;2023-04-19T01:30:53;52039.25;;;-145.37;63.92
13486;BME280;6815;59.336;17.998;2023-04-19T01:33:23;52015.28;;;-145.37;64.97
13486;BME280;6815;59.336;17.998;2023-04-19T01:35:50;52053.22;;;-145.37;64.48
13486;BME280;6815;59.336;17.998;2023-04-19T01:38:16;52075.19;;;-145.37;64.84
13486;BME280;6815;59.336;17.998;2023-04-19T01:40:41;52027.28;;;-145.37;65.54
13486;BME280;6815;59.336;17.998;2023-04-19T01:43:07;52077.19;;;-145.37;65.86
13486;BME280;6815;59.336;17.998;2023-04-19T01:45:33;52067.19;;;-145.37;66.31
13486;BME280;6815;59.336;17.998;2023-04-19T01:48:01;52063.22;;;-145.37;64.78
13486;BME280;6815;59.336;17.998;2023-04-19T01:50:27;52047.25;;;-145.37;65.83
13486;BME280;6815;59.336;17.998;2023-04-19T01:52:53;52057.22;;;-145.37;65.90
13486;BME280;6815;59.336;17.998;2023-04-19T01:55:18;52073.19;;;-145.37;66.61
13486;BME280;6815;59.336;17.998;2023-04-19T01:57:44;52053.22;;;-145.37;66.26
13486;BME280;6815;59.336;17.998;2023-04-19T02:00:10;52049.22;;;-145.37;65.49
13486;BME280;6815;59.336;17.998;2023-04-19T02:02:39;52079.19;;;-145.37;66.52
13486;BME280;6815;59.336;17.998;2023-04-19T02:05:05;52011.31;;;-145.37;67.12
13486;BME280;6815;59.336;17.998;2023-04-19T02:07:30;52065.19;;;-145.37;65.68
13486;BME280;6815;59.336;17.998;2023-04-19T02:09:56;52059.22;;;-145.37;65.40
13486;BME280;6815;59.336;17.998;2023-04-19T02:12:25;52051.22;;;-145.37;65.34
13486;BME280;6815;59.336;17.998;2023-04-19T02:14:52;52053.22;;;-145.37;67.07
13486;BME280;6815;59.336;17.998;2023-04-19T02:17:22;52045.25;;;-145.37;67.05
13486;BME280;6815;59.336;17.998;2023-04-19T02:19:47;52043.25;;;-145.37;67.02
13486;BME280;6815;59.336;17.998;2023-04-19T02:22:13;52043.25;;;-145.37;67.30
13486;BME280;6815;59.336;17.998;2023-04-19T02:24:38;52083.16;;;-145.37;67.65
13486;BME280;6815;59.336;17.998;2023-04-19T02:27:04;52041.25;;;-145.37;67.99
13486;BME280;6815;59.336;17.998;2023-04-19T02:29:30;52057.22;;;-145.37;67.38
13486;BME280;6815;59.336;17.998;2023-04-19T02:31:58;52055.22;;;-145.37;68.53
13486;BME280;6815;59.336;17.998;2023-04-19T02:34:23;52043.25;;;-145.37;68.49
13486;BME280;6815;59.336;17.998;2023-04-19T02:36:49;52051.22;;;-145.37;68.11
13486;BME280;6815;59.336;17.998;2023-04-19T02:39:14;52043.25;;;-145.37;67.71
13486;BME280;6815;59.336;17.998;2023-04-19T02:41:41;52051.22;;;-145.37;68.46
13486;BME280;6815;59.336;17.998;2023-04-19T02:44:07;52093.16;;;-145.37;68.35
13486;BME280;6815;59.336;17.998;2023-04-19T02:46:32;52041.25;;;-145.37;68.47
13486;BME280;6815;59.336;17.998;2023-04-19T02:48:59;52039.25;;;-145.37;68.64
13486;BME280;6815;59.336;17.998;2023-04-19T02:51:25;52047.25;;;-145.37;68.85
13486;BME280;6815;59.336;17.998;2023-04-19T02:53:51;52067.19;;;-145.37;68.80
13486;BME280;6815;59.336;17.998;2023-04-19T02:56:17;52061.22;;;-145.37;68.77
13486;BME280;6815;59.336;17.998;2023-04-19T02:58:44;52067.19;;;-145.37;69.05
13486;BME280;6815;59.336;17.998;2023-04-19T03:01:10;52027.28;;;-145.37;69.24
13486;BME280;6815;59.336;17.998;2023-04-19T03:03:35;52069.19;;;-145.37;68.54
13486;BME280;6815;59.336;17.998;2023-04-19T03:06:02;52039.25;;;-145.37;68.38
13486;BME280;6815;59.336;17.998;2023-04-19T03:08:27;52041.25;;;-145.37;68.66
13486;BME280;6815;59.336;17.998;2023-04-19T03:10:54;52069.19;;;-145.37;69.19
13486;BME280;6815;59.336;17.998;2023-04-19T03:13:20;52053.22;;;-145.37;68.41
13486;BME280;6815;59.336;17.998;2023-04-19T03:15:46;52023.28;;;-145.37;67.56
13486;BME280;6815;59.336;17.998;2023-04-19T03:18:14;52039.25;;;-145.37;68.24
13486;BME280;6815;59.336;17.998;2023-04-19T03:20:41;52061.22;;;-145.37;69.56
13486;BME280;6815;59.336;17.998;2023-04-19T03:23:07;52071.19;;;-145.37;69.42
13486;BME280;6815;59.336;17.998;2023-04-19T03:25:32;52059.22;;;-145.37;69.67
13486;BME280;6815;59.336;17.998;2023-04-19T03:27:58;52097.13;;;-145.37;68.99
13486;BME280;6815;59.336;17.998;2023-04-19T03:30:23;52065.19;;;-145.37;68.16
13486;BME280;6815;59.336;17.998;2023-04-19T03:32:49;52087.16;;;-145.37;68.50
13486;BME280;6815;59.336;17.998;2023-04-19T03:35:16;52045.25;;;-145.37;69.56
13486;BME280;6815;59.336;17.998;2023-04-19T03:37:42;52045.25;;;-145.37;68.79
13486;BME280;6815;59.336;17.998;2023-04-19T03:40:07;52027.28;;;-145.37;68.83
13486;BME280;6815;59.336;17.998;2023-04-19T03:42:33;52051.22;;;-145.37;68.03
13486;BME280;6815;59.336;17.998;2023-04-19T03:44:58;52013.31;;;-145.37;68.58
13486;BME280;6815;59.336;17.998;2023-04-19T03:47:24;52049.22;;;-145.37;68.88
13486;BME280;6815;59.336;17.998;2023-04-19T03:49:49;52041.25;;;-145.37;69.13
13486;BME280;6815;59.336;17.998;2023-04-19T03:52:15;52041.25;;;-145.37;69.51
13486;BME280;6815;59.336;17.998;2023-04-19T03:54:40;52037.25;;;-145.37;69.05
13486;BME280;6815;59.336;17.998;2023-04-19T03:57:06;52091.16;;;-145.37;69.16
13486;BME280;6815;59.336;17.998;2023-04-19T03:59:31;52051.22;;;-145.37;70.63
13486;BME280;6815;59.336;17.998;2023-04-19T04:01:57;52037.25;;;-145.37;71.03
13486;BME280;6815;59.336;17.998;2023-04-19T04:04:23;52043.25;;;-145.37;70.70
13486;BME280;6815;59.336;17.998;2023-04-19T04:06:48;52043.25;;;-145.37;70.84
13486;BME280;6815;59.336;17.998;2023-04-19T04:09:14;52053.22;;;-145.37;70.11
13486;BME280;6815;59.336;17.998;2023-04-19T04:11:39;52071.19;;;-145.37;70.09
13486;BME280;6815;59.336;17.998;2023-04-19T04:14:05;52051.22;;;-145.37;69.26
13486;BME280;6815;59.336;17.998;2023-04-19T04:16:31;52041.25;;;-145.37;69.28
13486;BME280;6815;59.336;17.998;2023-04-19T04:18:56;52053.22;;;-145.37;69.66
13486;BME280;6815;59.336;17.998;2023-04-19T04:21:23;52033.25;;;-145.37;70.16
13486;BME280;6815;59.336;17.998;2023-04-19T04:23:49;52063.22;;;-145.37;69.39
13486;BME280;6815;59.336;17.998;2023-04-19T04:26:14;52053.22;;;-145.37;69.46
13486;BME280;6815;59.336;17.998;2023-04-19T04:28:40;52057.22;;;-145.37;69.97
13486;BME280;6815;59.336;17.998;2023-04-19T04:31:05;52029.28;;;-145.37;69.40
13486;BME280;6815;59.336;17.998;2023-04-19T04:33:31;52051.22;;;-145.37;69.04
13486;BME280;6815;59.336;17.998;2023-04-19T04:35:59;52073.19;;;-145.37;69.10
13486;BME280;6815;59.336;17.998;2023-04-19T04:38:24;52041.25;;;-145.37;69.36
13486;BME280;6815;59.336;17.998;2023-04-19T04:40:54;52011.31;;;-145.37;69.46
13486;BME280;6815;59.336;17.998;2023-04-19T04:43:24;52095.16;;;-145.37;68.82
13486;BME280;6815;59.336;17.998;2023-04-19T04:45:50;52095.16;;;-145.37;68.49
13486;BME280;6815;59.336;17.998;2023-04-19T04:48:15;52065.19;;;-145.37;67.96
13486;BME280;6815;59.336;17.998;2023-04-19T04:50:41;52049.22;;;-145.37;68.15
13486;BME280;6815;59.336;17.998;2023-04-19T04:53:06;52067.19;;;-145.37;68.01
13486;BME280;6815;59.336;17.998;2023-04-19T04:55:33;52033.25;;;-145.37;67.81
13486;BME280;6815;59.336;17.998;2023-04-19T04:57:58;52085.16;;;-145.37;68.06
13486;BME280;6815;59.336;17.998;2023-04-19T05:00:24;52051.22;;;-145.37;67.79
13486;BME280;6815;59.336;17.998;2023-04-19T05:02:50;52027.28;;;-145.37;67.21
13486;BME280;6815;59.336;17.998;2023-04-19T05:05:15;52045.25;;;-145.37;68.04
13486;BME280;6815;59.336;17.998;2023-04-19T05:07:41;52041.25;;;-145.37;67.48
13486;BME280;6815;59.336;17.998;2023-04-19T05:10:07;52051.22;;;-145.37;67.13
13486;BME280;6815;59.336;17.998;2023-04-19T05:12:33;52043.25;;;-145.37;67.17
13486;BME280;6815;59.336;17.998;2023-04-19T05:14:58;52081.16;;;-145.37;67.34
13486;BME280;6815;59.336;17.998;2023-04-19T05:17:24;52051.22;;;-145.37;66.56
13486;BME280;6815;59.336;17.998;2023-04-19T05:19:49;52053.22;;;-145.37;66.58
13486;BME280;6815;59.336;17.998;2023-04-19T05:22:15;52045.25;;;-145.37;66.26
13486;BME280;6815;59.336;17.998;2023-04-19T05:24:42;52033.25;;;-145.37;66.03
13486;BME280;6815;59.336;17.998;2023-04-19T05:27:09;52051.22;;;-145.37;65.50
13486;BME280;6815;59.336;17.998;2023-04-19T05:29:35;52047.25;;;-145.37;65.08
13486;BME280;6815;59.336;17.998;2023-04-19T05:32:02;52057.22;;;-145.37;63.76
13486;BME280;6815;59.336;17.998;2023-04-19T05:34:28;52069.19;;;-145.37;62.84
13486;BME280;6815;59.336;17.998;2023-04-19T05:36:54;52027.28;;;-145.37;61.64
13486;BME280;6815;59.336;17.998;2023-04-19T05:39:20;52079.19;;;-145.37;60.85
13486;BME280;6815;59.336;17.998;2023-04-19T05:41:45;52079.19;;;-145.37;59.97
13486;BME280;6815;59.336;17.998;2023-04-19T05:44:11;52071.19;;;-145.37;59.13
13486;BME280;6815;59.336;17.998;2023-04-19T05:46:36;52043.25;;;-145.37;58.09
13486;BME280;6815;59.336;17.998;2023-04-19T05:49:02;52093.16;;;-145.37;57.33
13486;BME280;6815;59.336;17.998;2023-04-19T05:51:27;52073.19;;;-145.37;56.12
13486;BME280;6815;59.336;17.998;2023-04-19T05:53:53;52075.19;;;-145.37;54.66
13486;BME280;6815;59.336;17.998;2023-04-19T05:56:19;52047.25;;;-145.37;54.00
13486;BME280;6815;59.336;17.998;2023-04-19T05:58:44;52077.19;;;-145.37;51.96
13486;BME280;6815;59.336;17.998;2023-04-19T06:01:09;52105.13;;;-145.37;52.52
13486;BME280;6815;59.336;17.998;2023-04-19T06:03:36;52093.16;;;-145.37;51.82
13486;BME280;6815;59.336;17.998;2023-04-19T06:06:01;52101.13;;;-145.37;51.01
13486;BME280;6815;59.336;17.998;2023-04-19T06:08:27;52087.16;;;-145.37;51.42
13486;BME280;6815;59.336;17.998;2023-04-19T06:10:53;52061.22;;;-145.37;50.70
13486;BME280;6815;59.336;17.998;2023-04-19T06:13:20;52081.16;;;-145.37;48.96
13486;BME280;6815;59.336;17.998;2023-04-19T06:15:46;52053.22;;;-145.37;48.93
13486;BME280;6815;59.336;17.998;2023-04-19T06:18:12;52095.16;;;-145.37;48.42
13486;BME280;6815;59.336;17.998;2023-04-19T06:20:39;52091.16;;;-145.37;48.03
13486;BME280;6815;59.336;17.998;2023-04-19T06:23:06;52069.19;;;-145.37;47.90
13486;BME280;6815;59.336;17.998;2023-04-19T06:25:32;52083.16;;;-145.37;47.54
13486;BME280;6815;59.336;17.998;2023-04-19T06:27:58;52079.19;;;-145.37;47.45
13486;BME280;6815;59.336;17.998;2023-04-19T06:30:23;52101.13;;;-145.37;46.84
13486;BME280;6815;59.336;17.998;2023-04-19T06:32:49;52053.22;;;-145.37;46.28
13486;BME280;6815;59.336;17.998;2023-04-19T06:35:15;52065.19;;;-145.37;45.76
13486;BME280;6815;59.336;17.998;2023-04-19T06:37:41;52099.13;;;-145.37;45.07
13486;BME280;6815;59.336;17.998;2023-04-19T06:40:11;52113.09;;;-145.37;44.78
13486;BME280;6815;59.336;17.998;2023-04-19T06:42:37;52065.19;;;-145.37;44.87
13486;BME280;6815;59.336;17.998;2023-04-19T06:45:03;52119.09;;;-145.37;44.43
13486;BME280;6815;59.336;17.998;2023-04-19T06:47:30;52065.19;;;-145.37;43.96
13486;BME280;6815;59.336;17.998;2023-04-19T06:49:56;52063.22;;;-145.37;44.19
13486;BME280;6815;59.336;17.998;2023-04-19T06:52:22;52057.22;;;-145.37;43.94
13486;BME280;6815;59.336;17.998;2023-04-19T06:54:49;52087.16;;;-145.37;43.52
13486;BME280;6815;59.336;17.998;2023-04-19T06:57:16;52053.22;;;-145.37;43.85
13486;BME280;6815;59.336;17.998;2023-04-19T06:59:41;52045.25;;;-145.37;43.65
13486;BME280;6815;59.336;17.998;2023-04-19T07:02:07;52091.16;;;-145.37;43.01
13486;BME280;6815;59.336;17.998;2023-04-19T07:04:32;52093.16;;;-145.37;42.11
13486;BME280;6815;59.336;17.998;2023-04-19T07:06:58;51985.34;;;-145.37;42.59
13486;BME280;6815;59.336;17.998;2023-04-19T07:09:25;52095.16;;;-145.37;43.43
13486;BME280;6815;59.336;17.998;2023-04-19T07:11:50;52073.19;;;-145.37;43.02
13486;BME280;6815;59.336;17.998;2023-04-19T07:14:16;52085.16;;;-145.37;43.05
13486;BME280;6815;59.336;17.998;2023-04-19T07:16:46;52049.22;;;-145.37;43.07
13486;BME280;6815;59.336;17.998;2023-04-19T07:19:12;52071.19;;;-145.37;42.59
13486;BME280;6815;59.336;17.998;2023-04-19T07:21:38;52055.22;;;-145.37;42.52
13486;BME280;6815;59.336;17.998;2023-04-19T07:24:05;52061.22;;;-145.37;42.09
13486;BME280;6815;59.336;17.998;2023-04-19T07:26:31;52061.22;;;-145.37;42.36
13486;BME280;6815;59.336;17.998;2023-04-19T07:28:57;52031.25;;;-145.37;42.25
13486;BME280;6815;59.336;17.998;2023-04-19T07:31:23;52081.16;;;-145.37;42.05
13486;BME280;6815;59.336;17.998;2023-04-19T07:33:50;52059.22;;;-145.37;41.76
13486;BME280;6815;59.336;17.998;2023-04-19T07:36:17;52067.19;;;-145.37;41.89
13486;BME280;6815;59.336;17.998;2023-04-19T07:38:42;52081.16;;;-145.37;41.87
13486;BME280;6815;59.336;17.998;2023-04-19T07:41:08;52067.19;;;-145.37;41.46
13486;BME280;6815;59.336;17.998;2023-04-19T07:43:34;52059.22;;;-145.37;41.36
13486;BME280;6815;59.336;17.998;2023-04-19T07:46:01;52065.19;;;-145.37;42.03
13486;BME280;6815;59.336;17.998;2023-04-19T07:48:28;52097.13;;;-145.37;41.93
13486;BME280;6815;59.336;17.998;2023-04-19T07:50:54;52087.16;;;-145.37;41.76
13486;BME280;6815;59.336;17.998;2023-04-19T07:53:19;52067.19;;;-145.37;41.69
13486;BME280;6815;59.336;17.998;2023-04-19T07:55:45;52101.13;;;-145.37;41.12
13486;BME280;6815;59.336;17.998;2023-04-19T07:58:10;52127.09;;;-145.37;41.13
13486;BME280;6815;59.336;17.998;2023-04-19T08:00:36;52089.16;;;-145.37;39.82
13486;BME280;6815;59.336;17.998;2023-04-19T08:03:02;52013.31;;;-145.37;38.82
13486;BME280;6815;59.336;17.998;2023-04-19T08:05:29;52097.13;;;-145.37;38.99
13486;BME280;6815;59.336;17.998;2023-04-19T08:07:55;52057.22;;;-145.37;38.28
13486;BME280;6815;59.336;17.998;2023-04-19T08:10:22;52041.25;;;-145.37;38.23
13486;BME280;6815;59.336;17.998;2023-04-19T08:12:48;52077.19;;;-145.37;38.03
13486;BME280;6815;59.336;17.998;2023-04-19T08:15:14;52043.25;;;-145.37;37.23
13486;BME280;6815;59.336;17.998;2023-04-19T08:17:40;52081.16;;;-145.37;37.17
13486;BME280;6815;59.336;17.998;2023-04-19T08:20:08;52059.22;;;-145.37;37.04
13486;BME280;6815;59.336;17.998;2023-04-19T08:22:34;52051.22;;;-145.37;36.74
13486;BME280;6815;59.336;17.998;2023-04-19T08:25:00;52123.09;;;-145.37;37.13
13486;BME280;6815;59.336;17.998;2023-04-19T08:27:25;52099.13;;;-145.37;37.07
13486;BME280;6815;59.336;17.998;2023-04-19T08:29:51;52087.16;;;-145.37;37.19
13486;BME280;6815;59.336;17.998;2023-04-19T08:32:17;52075.19;;;-145.37;37.21
13486;BME280;6815;59.336;17.998;2023-04-19T08:34:42;52109.13;;;-145.37;37.13
13486;BME280;6815;59.336;17.998;2023-04-19T08:37:08;52079.19;;;-145.37;36.65
13486;BME280;6815;59.336;17.998;2023-04-19T08:39:34;52067.19;;;-145.37;37.29
13486;BME280;6815;59.336;17.998;2023-04-19T08:42:05;52087.16;;;-145.37;36.96
13486;BME280;6815;59.336;17.998;2023-04-19T08:44:32;52057.22;;;-145.37;36.70
13486;BME280;6815;59.336;17.998;2023-04-19T08:46:58;52075.19;;;-145.37;36.11
13486;BME280;6815;59.336;17.998;2023-04-19T08:49:28;52053.22;;;-145.37;36.35
13486;BME280;6815;59.336;17.998;2023-04-19T08:51:59;52073.19;;;-145.37;36.96
13486;BME280;6815;59.336;17.998;2023-04-19T08:54:28;52081.16;;;-145.37;36.75
13486;BME280;6815;59.336;17.998;2023-04-19T08:56:58;52083.16;;;-145.37;36.91
13486;BME280;6815;59.336;17.998;2023-04-19T08:59:24;52053.22;;;-145.37;36.69
13486;BME280;6815;59.336;17.998;2023-04-19T09:01:50;52063.22;;;-145.37;37.00
13486;BME280;6815;59.336;17.998;2023-04-19T09:04:15;52049.22;;;-145.37;36.55
13486;BME280;6815;59.336;17.998;2023-04-19T09:06:41;52085.16;;;-145.37;36.10
13486;BME280;6815;59.336;17.998;2023-04-19T09:09:18;52065.19;;;-145.37;35.71
13486;BME280;6815;59.336;17.998;2023-04-19T09:11:46;52047.25;;;-145.37;35.88
13486;BME280;6815;59.336;17.998;2023-04-19T09:14:13;52081.16;;;-145.37;35.16
13486;BME280;6815;59.336;17.998;2023-04-19T09:16:39;52047.25;;;-145.37;34.64
13486;BME280;6815;59.336;17.998;2023-04-19T09:19:06;52063.22;;;-145.37;34.34
13486;BME280;6815;59.336;17.998;2023-04-19T09:21:35;52091.16;;;-145.37;34.42
13486;BME280;6815;59.336;17.998;2023-04-19T09:24:01;52089.16;;;-145.37;34.05
13486;BME280;6815;59.336;17.998;2023-04-19T09:26:27;52089.16;;;-145.37;33.69
13486;BME280;6815;59.336;17.998;2023-04-19T09:28:59;52089.16;;;-145.37;34.02
13486;BME280;6815;59.336;17.998;2023-04-19T09:31:36;52081.16;;;-145.37;33.81
13486;BME280;6815;59.336;17.998;2023-04-19T09:34:13;52105.13;;;-145.37;33.97
13486;BME280;6815;59.336;17.998;2023-04-19T09:36:39;52061.22;;;-145.37;33.85
13486;BME280;6815;59.336;17.998;2023-04-19T09:39:05;52059.22;;;-145.37;33.75
13486;BME280;6815;59.336;17.998;2023-04-19T09:41:31;52045.25;;;-145.37;33.26
13486;BME280;6815;59.336;17.998;2023-04-19T09:44:11;52035.25;;;-145.37;33.47
13486;BME280;6815;59.336;17.998;2023-04-19T09:46:40;52083.16;;;-145.37;33.58
13486;BME280;6815;59.336;17.998;2023-04-19T09:49:24;52095.16;;;-145.37;33.54
13486;BME280;6815;59.336;17.998;2023-04-19T09:51:53;52107.13;;;-145.37;33.78
13486;BME280;6815;59.336;17.998;2023-04-19T09:54:21;52085.16;;;-145.37;33.70
13486;BME280;6815;59.336;17.998;2023-04-19T09:56:48;52099.13;;;-145.37;33.44
13486;BME280;6815;59.336;17.998;2023-04-19T09:59:14;52081.16;;;-145.37;33.79
13486;BME280;6815;59.336;17.998;2023-04-19T10:01:47;52105.13;;;-145.37;33.62
13486;BME280;6815;59.336;17.998;2023-04-19T10:04:16;52037.25;;;-145.37;33.45
13486;BME280;6815;59.336;17.998;2023-04-19T10:06:47;52059.22;;;-145.37;33.29
13486;BME280;6815;59.336;17.998;2023-04-19T10:09:14;52073.19;;;-145.37;33.47
13486;BME280;6815;59.336;17.998;2023-04-19T10:11:43;52033.25;;;-145.37;33.35
13486;BME280;6815;59.336;17.998;2023-04-19T10:14:13;52063.22;;;-145.37;33.23
13486;BME280;6815;59.336;17.998;2023-04-19T10:16:39;52057.22;;;-145.37;33.45
13486;BME280;6815;59.336;17.998;2023-04-19T10:19:10;52019.28;;;-145.37;33.61
13486;BME280;6815;59.336;17.998;2023-04-19T10:21:36;52109.13;;;-145.37;33.49
13486;BME280;6815;59.336;17.998;2023-04-19T10:24:03;52075.19;;;-145.37;33.48
13486;BME280;6815;59.336;17.998;2023-04-19T10:26:30;52075.19;;;-145.37;33.61
13486;BME280;6815;59.336;17.998;2023-04-19T10:29:15;52047.25;;;-145.37;33.31
13486;BME280;6815;59.336;17.998;2023-04-19T10:32:04;52083.16;;;-145.37;33.22
13486;BME280;6815;59.336;17.998;2023-04-19T10:34:37;52033.25;;;-145.37;33.47
13486;BME280;6815;59.336;17.998;2023-04-19T10:37:03;52113.09;;;-145.37;33.35
13486;BME280;6815;59.336;17.998;2023-04-19T10:39:43;52095.16;;;-145.37;33.44
13486;BME280;6815;59.336;17.998;2023-04-19T10:42:10;52067.19;;;-145.37;33.25
13486;BME280;6815;59.336;17.998;2023-04-19T10:44:37;52089.16;;;-145.37;33.33
13486;BME280;6815;59.336;17.998;2023-04-19T10:47:04;52105.13;;;-145.37;33.23
13486;BME280;6815;59.336;17.998;2023-04-19T10:49:29;52093.16;;;-145.37;32.99
13486;BME280;6815;59.336;17.998;2023-04-19T10:51:56;52051.22;;;-145.37;33.37
13486;BME280;6815;59.336;17.998;2023-04-19T10:54:37;52037.25;;;-145.37;33.40
13486;BME280;6815;59.336;17.998;2023-04-19T10:57:07;52095.16;;;-145.37;33.45
13486;BME280;6815;59.336;17.998;2023-04-19T10:59:38;52035.25;;;-145.37;33.58
13486;BME280;6815;59.336;17.998;2023-04-19T11:07:36;52065.19;;;-145.37;33.49
13486;BME280;6815;59.336;17.998;2023-04-19T11:10:01;52065.19;;;-145.37;33.34
13486;BME280;6815;59.336;17.998;2023-04-19T11:12:26;52071.19;;;-145.37;33.34
13486;BME280;6815;59.336;17.998;2023-04-19T11:14:55;52081.16;;;-145.37;33.17
13486;BME280;6815;59.336;17.998;2023-04-19T11:17:29;52077.19;;;-145.37;33.35
13486;BME280;6815;59.336;17.998;2023-04-19T11:19:58;52055.22;;;-145.37;33.50
13486;BME280;6815;59.336;17.998;2023-04-19T11:27:40;52077.19;;;-145.37;33.13
13486;BME280;6815;59.336;17.998;2023-04-19T11:32:34;52095.16;;;-145.37;33.03
13486;BME280;6815;59.336;17.998;2023-04-19T11:35:07;52069.19;;;-145.37;33.14
13486;BME280;6815;59.336;17.998;2023-04-19T11:37:34;52073.19;;;-145.37;32.93
13486;BME280;6815;59.336;17.998;2023-04-19T11:39:59;52081.16;;;-145.37;33.19
13486;BME280;6815;59.336;17.998;2023-04-19T11:42:25;52081.16;;;-145.37;33.24
13486;BME280;6815;59.336;17.998;2023-04-19T11:44:51;52079.19;;;-145.37;32.88
13486;BME280;6815;59.336;17.998;2023-04-19T11:47:17;52085.16;;;-145.37;33.11
13486;BME280;6815;59.336;17.998;2023-04-19T11:49:44;52049.22;;;-145.37;33.19
13486;BME280;6815;59.336;17.998;2023-04-19T11:52:11;52085.16;;;-145.37;33.38
13486;BME280;6815;59.336;17.998;2023-04-19T11:54:36;52069.19;;;-145.37;33.25
13486;BME280;6815;59.336;17.998;2023-04-19T11:57:06;52067.19;;;-145.37;32.98
13486;BME280;6815;59.336;17.998;2023-04-19T11:59:33;52093.16;;;-145.37;33.20
13486;BME280;6815;59.336;17.998;2023-04-19T12:02:09;52021.28;;;-145.37;33.17
13486;BME280;6815;59.336;17.998;2023-04-19T12:04:35;52107.13;;;-145.37;33.05
13486;BME280;6815;59.336;17.998;2023-04-19T12:07:02;52067.19;;;-145.37;32.99
13486;BME280;6815;59.336;17.998;2023-04-19T12:09:27;52023.28;;;-145.37;33.17
13486;BME280;6815;59.336;17.998;2023-04-19T12:11:53;52053.22;;;-145.37;33.05
13486;BME280;6815;59.336;17.998;2023-04-19T12:14:20;52049.22;;;-145.37;33.00
13486;BME280;6815;59.336;17.998;2023-04-19T12:17:10;52063.22;;;-145.37;32.98
13486;BME280;6815;59.336;17.998;2023-04-19T12:19:46;52107.13;;;-145.37;33.06
13486;BME280;6815;59.336;17.998;2023-04-19T12:22:15;52049.22;;;-145.37;32.90
13486;BME280;6815;59.336;17.998;2023-04-19T12:24:42;52101.13;;;-145.37;33.03
13486;BME280;6815;59.336;17.998;2023-04-19T12:27:08;52059.22;;;-145.37;33.12
13486;BME280;6815;59.336;17.998;2023-04-19T12:29:34;52101.13;;;-145.37;32.85
13486;BME280;6815;59.336;17.998;2023-04-19T12:32:00;52065.19;;;-145.37;32.75
13486;BME280;6815;59.336;17.998;2023-04-19T12:34:26;52089.16;;;-145.37;32.68
13486;BME280;6815;59.336;17.998;2023-04-19T12:36:52;52057.22;;;-145.37;32.52
13486;BME280;6815;59.336;17.998;2023-04-19T12:39:19;52057.22;;;-145.37;32.43
13486;BME280;6815;59.336;17.998;2023-04-19T12:41:44;52059.22;;;-145.37;32.54
13486;BME280;6815;59.336;17.998;2023-04-19T12:44:13;52085.16;;;-145.37;32.71
13486;BME280;6815;59.336;17.998;2023-04-19T12:46:39;52037.25;;;-145.37;32.79
13486;BME280;6815;59.336;17.998;2023-04-19T12:49:05;52055.22;;;-145.37;32.71
13486;BME280;6815;59.336;17.998;2023-04-19T12:51:30;52087.16;;;-145.37;32.79